Time;durP1;ratioP1;P1;durP2;ratioP2;P2;SDS_P1;SDS_P2;PMS_P1;PMS_P2;Temp;Humidity;BMP_temperature;BMP_pressure;BME280_temperature;BME280_humidity;BME280_pressure;Samples;Min_cycle;Max_cycle;Signal;HPM_P1;HPM_P2
2021/01/06 00:01:45;;;;;;;10.80;6.95;;;3.90;99.90;;;;;;5075872;28;20612;-77
2021/01/06 00:04:11;;;;;;;12.63;6.65;;;3.90;99.90;;;;;;5076040;28;20242;-76
2021/01/06 00:06:38;;;;;;;12.90;6.32;;;3.60;99.90;;;;;;5075524;28;20579;-78
2021/01/06 00:09:05;;;;;;;12.63;5.97;;;3.50;99.90;;;;;;5075570;28;20227;-76
2021/01/06 00:11:33;;;;;;;13.68;6.85;;;3.40;99.90;;;;;;5076950;28;20203;-79
2021/01/06 00:13:59;;;;;;;11.35;5.72;;;3.40;99.90;;;;;;5076456;28;20251;-77
2021/01/06 00:16:27;;;;;;;14.55;6.78;;;3.50;99.90;;;;;;5075795;28;20199;-77
2021/01/06 00:18:53;;;;;;;13.73;6.63;;;3.40;99.90;;;;;;5077232;28;20709;-77
2021/01/06 00:21:19;;;;;;;10.02;6.05;;;3.30;99.90;;;;;;5077278;28;20202;-80
2021/01/06 00:23:47;;;;;;;12.95;5.18;;;3.40;99.90;;;;;;5075708;28;20199;-73
2021/01/06 00:26:13;;;;;;;10.48;5.55;;;3.30;99.90;;;;;;5074835;28;20583;-74
2021/01/06 00:28:39;;;;;;;10.65;5.90;;;3.20;99.90;;;;;;5074796;28;20463;-75
2021/01/06 00:31:06;;;;;;;12.70;5.70;;;3.20;99.90;;;;;;5074992;28;20289;-74
2021/01/06 00:33:36;;;;;;;13.32;7.25;;;3.20;99.90;;;;;;5075451;28;20206;-74
2021/01/06 00:36:05;;;;;;;9.57;4.90;;;3.10;99.90;;;;;;5073172;28;20198;-74
2021/01/06 00:38:31;;;;;;;13.02;5.47;;;3.00;99.90;;;;;;5074503;28;20281;-74
2021/01/06 00:40:58;;;;;;;10.18;6.25;;;3.00;99.90;;;;;;5075034;28;20575;-74
2021/01/06 00:43:25;;;;;;;17.05;7.85;;;3.10;99.90;;;;;;5074933;28;20210;-74
2021/01/06 00:45:52;;;;;;;14.02;5.13;;;3.10;99.90;;;;;;5074305;28;20232;-74
2021/01/06 00:48:19;;;;;;;15.93;7.20;;;3.10;99.90;;;;;;5074477;28;20227;-75
2021/01/06 00:50:46;;;;;;;15.05;6.95;;;3.10;99.90;;;;;;5075104;28;20207;-74
2021/01/06 00:53:16;;;;;;;17.90;8.02;;;3.00;99.90;;;;;;5075828;28;20317;-77
2021/01/06 00:55:43;;;;;;;15.40;7.75;;;2.90;99.90;;;;;;5074772;28;20668;-77
2021/01/06 00:58:09;;;;;;;9.05;5.93;;;2.80;99.90;;;;;;5074617;28;20237;-76
2021/01/06 01:00:36;;;;;;;9.90;5.22;;;2.80;99.90;;;;;;5075002;28;20225;-77
2021/01/06 01:03:02;;;;;;;12.05;5.57;;;3.00;99.90;;;;;;5075630;28;20752;-77
2021/01/06 01:05:30;;;;;;;11.90;6.40;;;3.10;99.90;;;;;;5074327;28;20203;-76
2021/01/06 01:07:58;;;;;;;14.82;7.47;;;3.10;99.90;;;;;;5074189;28;20226;-76
2021/01/06 01:10:31;;;;;;;13.60;7.18;;;3.10;99.90;;;;;;5074362;28;20300;-76
2021/01/06 01:12:58;;;;;;;15.68;7.13;;;3.20;99.90;;;;;;5074623;28;20295;-76
2021/01/06 01:15:27;;;;;;;19.75;5.85;;;3.20;99.90;;;;;;5074319;28;20251;-76
2021/01/06 01:17:54;;;;;;;15.00;5.68;;;3.00;99.90;;;;;;5074023;28;20227;-76
2021/01/06 01:20:21;;;;;;;11.00;4.88;;;2.90;99.90;;;;;;5074132;28;20207;-76
2021/01/06 01:22:48;;;;;;;13.07;6.20;;;2.80;99.90;;;;;;5074497;28;20209;-76
2021/01/06 01:25:18;;;;;;;12.52;5.78;;;2.80;99.90;;;;;;5073862;28;20203;-76
2021/01/06 01:27:45;;;;;;;12.88;7.00;;;2.80;99.90;;;;;;5073490;28;20222;-76
2021/01/06 01:30:14;;;;;;;13.48;6.20;;;2.70;99.90;;;;;;5073964;28;20206;-75
2021/01/06 01:32:42;;;;;;;14.80;6.70;;;2.60;99.90;;;;;;5074076;28;20217;-75
2021/01/06 01:35:10;;;;;;;14.13;6.00;;;2.70;99.90;;;;;;5073860;28;20230;-75
2021/01/06 01:37:40;;;;;;;9.68;5.53;;;2.70;99.90;;;;;;5073308;28;20294;-76
2021/01/06 01:40:08;;;;;;;10.05;4.85;;;2.60;99.90;;;;;;5073584;28;20207;-75
2021/01/06 01:42:35;;;;;;;7.38;4.40;;;2.70;99.90;;;;;;5074263;28;20290;-74
2021/01/06 01:45:05;;;;;;;9.50;5.20;;;2.80;99.90;;;;;;5073714;28;20289;-75
2021/01/06 01:47:38;;;;;;;16.30;5.85;;;2.70;99.90;;;;;;5072734;28;20227;-75
2021/01/06 01:50:06;;;;;;;8.30;4.53;;;2.70;99.90;;;;;;5073431;28;20203;-75
2021/01/06 01:52:37;;;;;;;12.25;5.88;;;2.70;99.90;;;;;;5073865;28;20202;-75
2021/01/06 01:55:06;;;;;;;13.63;4.90;;;2.70;99.90;;;;;;5073343;28;20209;-74
2021/01/06 01:57:38;;;;;;;9.82;4.70;;;2.70;99.90;;;;;;5073297;28;20252;-75
2021/01/06 02:00:10;;;;;;;14.05;6.82;;;2.70;99.90;;;;;;5073566;28;20331;-75
2021/01/06 02:02:46;;;;;;;14.07;6.40;;;2.70;99.90;;;;;;5073776;28;20260;-78
2021/01/06 02:05:15;;;;;;;8.20;5.05;;;2.70;99.90;;;;;;5067000;28;20207;-74
2021/01/06 02:07:50;;;;;;;9.88;5.82;;;2.80;99.90;;;;;;5052976;28;20227;-74
2021/01/06 02:10:21;;;;;;;11.70;5.22;;;2.70;99.90;;;;;;5053133;28;20225;-75
2021/01/06 02:12:51;;;;;;;15.13;5.93;;;2.80;99.90;;;;;;5053519;28;20302;-75
2021/01/06 02:15:25;;;;;;;7.28;4.75;;;2.60;99.90;;;;;;5053198;28;20191;-75
2021/01/06 02:17:52;;;;;;;8.45;5.28;;;2.60;99.90;;;;;;5052664;28;20314;-77
2021/01/06 02:20:21;;;;;;;10.82;6.85;;;2.70;99.90;;;;;;5052955;28;20758;-76
2021/01/06 02:22:50;;;;;;;11.07;5.35;;;2.80;99.90;;;;;;5053314;28;20208;-77
2021/01/06 02:25:18;;;;;;;11.52;5.93;;;2.80;99.90;;;;;;5053312;28;20229;-77
2021/01/06 02:27:45;;;;;;;9.18;5.07;;;2.90;99.90;;;;;;5052733;28;20223;-76
2021/01/06 02:30:13;;;;;;;15.82;7.03;;;3.00;99.90;;;;;;5053332;28;20293;-77
2021/01/06 02:32:40;;;;;;;12.05;5.63;;;2.90;99.90;;;;;;5053652;28;20206;-78
2021/01/06 02:35:09;;;;;;;12.25;5.15;;;2.80;99.90;;;;;;5053437;28;20203;-76
2021/01/06 02:37:36;;;;;;;9.77;4.30;;;2.80;99.90;;;;;;5052833;28;20196;-77
2021/01/06 02:40:05;;;;;;;7.20;4.72;;;2.80;99.90;;;;;;5053358;28;20661;-77
2021/01/06 02:42:32;;;;;;;11.13;5.38;;;2.90;99.90;;;;;;5052992;28;20301;-78
2021/01/06 02:44:59;;;;;;;11.10;6.03;;;2.90;99.90;;;;;;5052801;28;20210;-76
2021/01/06 02:47:27;;;;;;;16.27;7.88;;;2.80;99.90;;;;;;5052237;28;20227;-76
2021/01/06 02:49:54;;;;;;;19.08;7.15;;;2.70;99.90;;;;;;5052750;28;20213;-76
2021/01/06 02:52:26;;;;;;;15.07;4.90;;;2.50;99.90;;;;;;5053419;28;20211;-73
2021/01/06 02:54:54;;;;;;;7.35;4.80;;;2.60;99.90;;;;;;5052496;28;20207;-75
2021/01/06 02:57:22;;;;;;;7.78;5.25;;;2.60;99.90;;;;;;5052166;28;20199;-74
2021/01/06 02:59:49;;;;;;;12.82;5.82;;;2.70;99.90;;;;;;5052304;28;20596;-74
2021/01/06 03:02:20;;;;;;;15.10;5.95;;;2.70;99.90;;;;;;5053231;28;20218;-74
2021/01/06 03:04:54;;;;;;;10.15;5.05;;;2.70;99.90;;;;;;5052880;28;20342;-74
2021/01/06 03:07:23;;;;;;;11.73;5.80;;;2.90;99.90;;;;;;5052287;28;20222;-74
2021/01/06 03:09:49;;;;;;;8.77;5.10;;;3.00;99.90;;;;;;5052727;28;20594;-75
2021/01/06 03:12:22;;;;;;;12.70;6.50;;;3.00;99.90;;;;;;5053523;28;20315;-77
2021/01/06 03:14:49;;;;;;;13.00;5.30;;;3.00;99.90;;;;;;5053274;28;20212;-76
2021/01/06 03:17:17;;;;;;;12.25;5.32;;;2.90;99.90;;;;;;5052425;28;20727;-77
2021/01/06 03:19:47;;;;;;;12.10;6.70;;;2.80;99.90;;;;;;5054298;28;20238;-77
2021/01/06 03:22:17;;;;;;;12.85;6.03;;;2.70;99.90;;;;;;5054916;28;20209;-77
2021/01/06 03:24:48;;;;;;;10.57;4.13;;;2.70;99.90;;;;;;5052376;28;20654;-74
2021/01/06 03:27:16;;;;;;;13.38;5.15;;;2.60;99.90;;;;;;5052221;28;20227;-74
2021/01/06 03:29:43;;;;;;;10.93;5.22;;;2.60;99.90;;;;;;5052390;28;20746;-75
2021/01/06 03:32:20;;;;;;;10.18;5.13;;;2.50;99.90;;;;;;5052347;28;20203;-75
2021/01/06 03:34:53;;;;;;;8.52;5.43;;;2.50;99.90;;;;;;5051944;28;20207;-75
2021/01/06 03:37:31;;;;;;;9.73;5.85;;;2.40;99.90;;;;;;5051921;28;20216;-74
2021/01/06 03:40:06;;;;;;;9.57;5.65;;;2.40;99.90;;;;;;5052202;28;20264;-75
2021/01/06 03:42:33;;;;;;;12.02;5.45;;;2.40;99.90;;;;;;5053077;28;20696;-75
2021/01/06 03:45:01;;;;;;;10.80;4.65;;;2.40;99.90;;;;;;5052084;28;20212;-75
2021/01/06 03:47:34;;;;;;;14.32;6.03;;;2.60;99.90;;;;;;5051857;28;20227;-76
2021/01/06 03:50:05;;;;;;;9.95;5.60;;;2.60;99.90;;;;;;5052976;28;20206;-76
2021/01/06 03:52:45;;;;;;;8.88;4.15;;;2.60;99.90;;;;;;5052964;28;20203;-76
2021/01/06 03:55:27;;;;;;;12.55;5.70;;;2.60;99.90;;;;;;5051901;28;20210;-75
2021/01/06 03:57:55;;;;;;;7.72;4.57;;;2.60;99.90;;;;;;5052695;28;20219;-77
2021/01/06 04:00:39;;;;;;;14.70;5.80;;;2.70;99.90;;;;;;5053116;28;20204;-77
2021/01/06 04:03:16;;;;;;;9.27;4.63;;;2.70;99.90;;;;;;5052722;28;20204;-77
2021/01/06 04:05:45;;;;;;;12.38;5.75;;;2.60;99.90;;;;;;5051299;28;20199;-75
2021/01/06 04:08:16;;;;;;;11.73;6.72;;;2.50;99.90;;;;;;5051638;28;20227;-77
2021/01/06 04:10:51;;;;;;;12.90;6.25;;;2.60;99.90;;;;;;5055500;28;20207;-77
2021/01/06 04:13:17;;;;;;;10.10;3.85;;;2.60;99.90;;;;;;5055857;28;20259;-76
2021/01/06 04:15:44;;;;;;;8.07;4.88;;;2.50;99.90;;;;;;5067025;28;20262;-76
2021/01/06 04:18:11;;;;;;;11.25;5.30;;;2.50;99.90;;;;;;5077637;28;20309;-75
2021/01/06 04:20:39;;;;;;;14.27;6.07;;;2.50;99.90;;;;;;5077224;28;20343;-75
2021/01/06 04:23:07;;;;;;;8.57;4.60;;;2.40;99.90;;;;;;5077383;28;20724;-75
2021/01/06 04:25:35;;;;;;;10.65;6.32;;;2.40;99.90;;;;;;5077709;28;20237;-74
2021/01/06 04:28:06;;;;;;;7.70;4.75;;;2.40;99.90;;;;;;5076914;28;20237;-74
2021/01/06 04:30:35;;;;;;;9.30;5.57;;;2.30;99.90;;;;;;5077332;28;20187;-75
2021/01/06 04:33:04;;;;;;;12.82;5.93;;;2.30;99.90;;;;;;5077622;28;20203;-75
2021/01/06 04:35:32;;;;;;;12.65;6.10;;;2.30;99.90;;;;;;5077261;28;20297;-75
2021/01/06 04:37:59;;;;;;;13.68;6.53;;;2.20;99.90;;;;;;5077486;28;20233;-75
2021/01/06 04:40:28;;;;;;;10.52;5.07;;;2.20;99.90;;;;;;5078101;28;20229;-75
2021/01/06 04:43:01;;;;;;;14.85;6.70;;;2.30;99.90;;;;;;5077694;28;20203;-75
2021/01/06 04:45:32;;;;;;;10.38;5.90;;;2.30;99.90;;;;;;5077238;28;20199;-75
2021/01/06 04:48:36;;;;;;;14.25;5.35;;;2.30;99.90;;;;;;5077031;28;20280;-75
2021/01/06 04:51:26;;;;;;;8.25;3.60;;;2.40;99.90;;;;;;5077822;28;20270;-75
2021/01/06 04:54:20;;;;;;;17.75;6.50;;;2.40;99.90;;;;;;5077746;28;20298;-75
2021/01/06 04:57:04;;;;;;;8.00;5.50;;;2.40;99.90;;;;;;5076941;28;20199;-74
2021/01/06 05:00:01;;;;;;;14.38;5.22;;;2.30;99.90;;;;;;5077397;28;20329;-74
2021/01/06 05:02:56;;;;;;;8.93;3.92;;;2.30;99.90;;;;;;5051210;28;20285;-75
2021/01/06 05:05:38;;;;;;;12.00;4.97;;;2.30;99.90;;;;;;5076591;28;20286;-75
2021/01/06 05:08:16;;;;;;;8.85;4.60;;;2.30;99.90;;;;;;5076669;28;20244;-75
2021/01/06 05:10:44;;;;;;;9.63;4.82;;;2.40;99.90;;;;;;5076745;28;20203;-74
2021/01/06 05:13:19;;;;;;;9.52;4.65;;;2.50;99.90;;;;;;5076096;28;20213;-75
2021/01/06 05:15:51;;;;;;;11.30;6.38;;;2.60;99.90;;;;;;5076466;28;20206;-74
2021/01/06 05:18:17;;;;;;;13.65;5.00;;;2.80;99.90;;;;;;5077013;28;20317;-74
2021/01/06 05:20:43;;;;;;;9.05;4.85;;;2.80;99.90;;;;;;5076526;28;20594;-75
2021/01/06 05:23:17;;;;;;;11.52;5.53;;;2.70;99.90;;;;;;5076471;28;20213;-75
2021/01/06 05:25:43;;;;;;;7.50;4.43;;;2.70;99.90;;;;;;5076354;28;20206;-74
2021/01/06 05:28:13;;;;;;;9.20;4.55;;;2.80;99.90;;;;;;5076144;28;20249;-74
2021/01/06 05:30:40;;;;;;;7.70;4.68;;;2.80;99.90;;;;;;5076153;28;20207;-75
2021/01/06 05:33:09;;;;;;;6.78;4.75;;;2.60;99.90;;;;;;5076073;28;20209;-75
2021/01/06 05:35:39;;;;;;;11.45;5.18;;;2.70;99.90;;;;;;5076264;28;20203;-74
2021/01/06 05:38:06;;;;;;;9.90;5.43;;;2.80;99.90;;;;;;5076732;28;20240;-75
2021/01/06 05:40:36;;;;;;;11.02;4.70;;;2.80;99.90;;;;;;5076479;28;20203;-74
2021/01/06 05:43:05;;;;;;;12.13;5.32;;;3.00;99.90;;;;;;5075681;28;20563;-74
2021/01/06 05:45:39;;;;;;;9.75;5.75;;;3.10;99.90;;;;;;5076363;28;20205;-74
2021/01/06 05:48:15;;;;;;;8.73;4.70;;;3.20;99.90;;;;;;5076053;28;20231;-75
2021/01/06 05:50:44;;;;;;;10.98;5.25;;;3.20;99.90;;;;;;5074998;28;20660;-75
2021/01/06 05:53:15;;;;;;;10.90;4.43;;;2.90;99.90;;;;;;5075151;28;20309;-75
2021/01/06 05:55:47;;;;;;;6.15;4.10;;;2.70;99.90;;;;;;5075171;28;20207;-74
2021/01/06 05:58:19;;;;;;;8.65;5.18;;;2.80;99.90;;;;;;5075052;28;20696;-74
2021/01/06 06:00:52;;;;;;;9.95;5.60;;;2.80;99.90;;;;;;5075695;28;20203;-75
2021/01/06 06:03:57;;;;;;;16.23;6.57;;;2.80;99.90;;;;;;5075711;28;20202;-74
2021/01/06 06:06:47;;;;;;;10.63;4.70;;;2.60;99.90;;;;;;5075772;28;20229;-74
2021/01/06 06:09:18;;;;;;;8.70;4.40;;;2.60;99.90;;;;;;5075793;28;20240;-75
2021/01/06 06:12:29;;;;;;;8.60;4.85;;;2.70;99.90;;;;;;5075537;28;20565;-75
2021/01/06 06:15:13;;;;;;;8.55;3.80;;;2.80;99.90;;;;;;5075754;28;20203;-75
2021/01/06 06:17:57;;;;;;;11.48;5.03;;;2.70;99.90;;;;;;5074624;28;20218;-75
2021/01/06 06:20:39;;;;;;;15.00;5.80;;;3.00;99.90;;;;;;5075176;28;20278;-75
2021/01/06 06:23:27;;;;;;;10.27;5.07;;;3.00;99.90;;;;;;5074901;28;20206;-74
2021/01/06 06:26:04;;;;;;;6.97;4.22;;;3.00;99.90;;;;;;5074493;28;20207;-75
2021/01/06 06:28:38;;;;;;;8.35;4.13;;;3.10;99.90;;;;;;5075007;28;20230;-75
2021/01/06 06:31:22;;;;;;;9.35;4.70;;;3.10;99.90;;;;;;5076022;28;20256;-75
2021/01/06 06:33:54;;;;;;;7.18;4.25;;;3.20;99.90;;;;;;5076017;28;20187;-75
2021/01/06 06:36:23;;;;;;;10.20;4.78;;;2.80;99.90;;;;;;5074612;28;20202;-75
2021/01/06 06:38:50;;;;;;;7.10;4.40;;;2.90;99.90;;;;;;5075256;28;20222;-75
2021/01/06 06:41:27;;;;;;;6.55;4.25;;;2.70;99.90;;;;;;5075280;28;20293;-75
2021/01/06 06:44:19;;;;;;;9.02;4.95;;;2.70;99.90;;;;;;5075120;28;20208;-75
2021/01/06 06:46:54;;;;;;;8.15;4.65;;;2.90;99.90;;;;;;5075112;28;20264;-75
2021/01/06 06:49:29;;;;;;;8.98;4.50;;;2.90;99.90;;;;;;5075307;28;20231;-75
2021/01/06 06:52:03;;;;;;;5.05;3.72;;;3.00;99.90;;;;;;5075635;28;20542;-75
2021/01/06 06:54:38;;;;;;;8.10;3.95;;;3.00;99.90;;;;;;5075531;28;20602;-75
2021/01/06 06:57:13;;;;;;;10.82;5.57;;;2.80;99.90;;;;;;5075167;28;20208;-74
2021/01/06 06:59:49;;;;;;;10.40;4.32;;;2.60;99.90;;;;;;5075361;28;20226;-75
2021/01/06 07:02:17;;;;;;;6.43;3.55;;;2.50;99.90;;;;;;5075524;28;20214;-75
2021/01/06 07:04:47;;;;;;;7.05;3.55;;;2.40;99.90;;;;;;5075196;28;20561;-75
2021/01/06 07:07:32;;;;;;;5.70;3.92;;;2.40;99.90;;;;;;5074713;28;20621;-75
2021/01/06 07:09:59;;;;;;;6.60;3.95;;;2.50;99.90;;;;;;5075101;28;20183;-75
2021/01/06 07:12:25;;;;;;;6.03;3.75;;;2.60;99.90;;;;;;5074748;28;20203;-75
2021/01/06 07:14:55;;;;;;;8.25;4.97;;;2.60;99.90;;;;;;5075096;28;20298;-75
2021/01/06 07:17:32;;;;;;;6.38;3.75;;;2.70;99.90;;;;;;5074417;28;20217;-75
2021/01/06 07:20:01;;;;;;;4.85;3.83;;;2.60;99.90;;;;;;5074996;28;20202;-75
2021/01/06 07:22:34;;;;;;;8.15;4.22;;;2.50;99.90;;;;;;5075129;28;20206;-75
2021/01/06 07:25:12;;;;;;;6.00;3.88;;;2.40;99.90;;;;;;5075268;28;20203;-75
2021/01/06 07:27:39;;;;;;;8.93;3.92;;;2.50;99.90;;;;;;5074242;28;20230;-75
2021/01/06 07:30:08;;;;;;;6.25;4.35;;;2.50;99.90;;;;;;5073882;28;20630;-75
2021/01/06 07:32:40;;;;;;;10.05;5.20;;;2.50;99.90;;;;;;5073653;28;20214;-75
2021/01/06 07:35:11;;;;;;;7.45;4.75;;;2.40;99.90;;;;;;5073767;28;20213;-75
2021/01/06 07:37:41;;;;;;;8.38;4.90;;;2.40;99.90;;;;;;5073460;28;20198;-74
2021/01/06 07:40:24;;;;;;;6.65;3.15;;;2.50;99.90;;;;;;5074278;28;20616;-75
2021/01/06 07:42:54;;;;;;;6.70;3.70;;;2.70;99.90;;;;;;5072631;28;20210;-75
2021/01/06 07:45:39;;;;;;;7.10;4.25;;;2.80;99.90;;;;;;5077438;28;20293;-75
2021/01/06 07:48:29;;;;;;;5.28;3.75;;;3.00;99.90;;;;;;5078120;28;20295;-75
2021/01/06 07:51:05;;;;;;;4.65;3.08;;;3.00;99.90;;;;;;5077420;28;20247;-74
2021/01/06 07:53:38;;;;;;;6.75;3.53;;;3.00;99.90;;;;;;5077993;28;20541;-75
2021/01/06 07:56:14;;;;;;;9.20;4.15;;;3.00;99.90;;;;;;5076965;28;20672;-74
2021/01/06 07:58:44;;;;;;;10.88;3.90;;;2.80;99.90;;;;;;5077121;28;20222;-75
2021/01/06 08:01:18;;;;;;;7.28;4.20;;;2.70;99.90;;;;;;5077669;28;20281;-75
2021/01/06 08:03:50;;;;;;;7.10;4.35;;;2.70;99.90;;;;;;5077061;28;20648;-75
2021/01/06 08:06:20;;;;;;;6.32;3.80;;;2.80;99.90;;;;;;5076782;28;20740;-75
2021/01/06 08:08:48;;;;;;;6.60;4.18;;;2.80;99.90;;;;;;5077056;28;20233;-75
2021/01/06 08:11:17;;;;;;;6.57;4.05;;;2.90;99.90;;;;;;5077700;28;20202;-75
2021/01/06 08:13:58;;;;;;;8.55;4.30;;;2.80;99.90;;;;;;5076901;28;20759;-75
2021/01/06 08:16:35;;;;;;;7.05;3.30;;;2.80;99.90;;;;;;5077006;28;20203;-75
2021/01/06 08:19:15;;;;;;;5.25;3.80;;;2.80;99.90;;;;;;5076864;28;20708;-75
2021/01/06 08:21:51;;;;;;;8.10;4.07;;;2.80;99.90;;;;;;5077378;28;20202;-75
2021/01/06 08:24:26;;;;;;;7.00;4.22;;;2.70;99.90;;;;;;5076828;28;20627;-75
2021/01/06 08:26:55;;;;;;;8.18;3.95;;;2.50;99.90;;;;;;5076661;28;20279;-75
2021/01/06 08:29:24;;;;;;;9.45;4.82;;;2.50;99.90;;;;;;5076841;28;20256;-75
2021/01/06 08:31:54;;;;;;;8.27;4.03;;;2.30;99.90;;;;;;5077082;28;20293;-75
2021/01/06 08:34:25;;;;;;;10.45;4.82;;;2.30;99.90;;;;;;5076929;28;20560;-75
2021/01/06 08:36:59;;;;;;;7.38;5.22;;;2.30;99.90;;;;;;5076540;28;20225;-75
2021/01/06 08:39:28;;;;;;;6.53;3.38;;;2.30;99.90;;;;;;5076458;28;20272;-74
2021/01/06 08:42:06;;;;;;;7.15;4.13;;;2.50;99.90;;;;;;5076772;28;20209;-75
2021/01/06 08:44:37;;;;;;;7.88;4.65;;;2.60;99.90;;;;;;5076970;28;20206;-75
2021/01/06 08:47:05;;;;;;;7.55;5.18;;;2.80;99.90;;;;;;5076047;28;20225;-74
2021/01/06 08:49:34;;;;;;;10.15;4.20;;;2.90;99.90;;;;;;5077325;28;20318;-75
2021/01/06 08:52:21;;;;;;;6.88;3.45;;;2.90;99.90;;;;;;5077406;28;20207;-75
2021/01/06 08:54:57;;;;;;;10.18;5.07;;;2.70;99.90;;;;;;5077115;28;20560;-75
2021/01/06 08:57:27;;;;;;;8.00;4.22;;;2.70;99.90;;;;;;5075799;28;20199;-75
2021/01/06 08:59:53;;;;;;;5.90;4.03;;;2.70;99.90;;;;;;5077041;28;20240;-75
2021/01/06 09:02:28;;;;;;;6.07;3.20;;;2.70;99.90;;;;;;5076707;28;20751;-75
2021/01/06 09:04:55;;;;;;;4.40;3.30;;;2.80;99.90;;;;;;5077378;28;20197;-75
2021/01/06 09:07:25;;;;;;;7.05;4.35;;;2.90;99.90;;;;;;5077121;28;20312;-75
2021/01/06 09:10:12;;;;;;;8.23;4.47;;;3.00;99.90;;;;;;5077416;28;20262;-75
2021/01/06 09:12:54;;;;;;;9.07;4.20;;;3.10;99.90;;;;;;5077065;28;20207;-75
2021/01/06 09:15:31;;;;;;;6.70;4.22;;;3.10;99.90;;;;;;5076956;28;20289;-75
2021/01/06 09:18:05;;;;;;;11.73;4.78;;;3.00;99.90;;;;;;5077010;28;20254;-75
2021/01/06 09:20:40;;;;;;;6.30;4.55;;;2.90;99.90;;;;;;5076925;28;20544;-75
2021/01/06 09:23:08;;;;;;;4.97;3.55;;;3.10;99.90;;;;;;5076836;28;20204;-75
2021/01/06 09:25:34;;;;;;;8.05;4.03;;;3.20;99.90;;;;;;5076676;28;20598;-75
2021/01/06 09:28:01;;;;;;;5.95;3.42;;;2.90;99.90;;;;;;5076130;28;20271;-75
2021/01/06 09:30:33;;;;;;;7.05;3.63;;;2.80;99.90;;;;;;5077248;28;20206;-75
2021/01/06 09:33:02;;;;;;;5.47;4.32;;;2.90;99.90;;;;;;5076986;28;20309;-75
2021/01/06 09:35:34;;;;;;;7.70;4.00;;;3.00;99.90;;;;;;5076406;28;20229;-76
2021/01/06 09:38:22;;;;;;;8.05;3.65;;;3.00;99.90;;;;;;5076537;28;20225;-75
2021/01/06 09:40:50;;;;;;;7.75;4.50;;;3.10;99.90;;;;;;5077072;28;20191;-75
2021/01/06 09:43:27;;;;;;;7.30;4.10;;;3.10;99.90;;;;;;5076470;28;20203;-75
2021/01/06 09:45:54;;;;;;;8.63;4.13;;;3.00;99.90;;;;;;5076510;28;20576;-75
2021/01/06 09:48:21;;;;;;;6.00;3.35;;;3.00;99.90;;;;;;5075973;28;20648;-75
2021/01/06 09:50:50;;;;;;;6.65;3.28;;;3.10;99.90;;;;;;5076608;28;20206;-75
2021/01/06 09:53:20;;;;;;;8.25;3.65;;;3.20;99.90;;;;;;5075963;28;20202;-75
2021/01/06 09:55:49;;;;;;;6.93;4.15;;;3.10;99.90;;;;;;5075936;28;20256;-75
2021/01/06 09:58:26;;;;;;;9.55;4.63;;;3.10;99.90;;;;;;5076004;28;20542;-75
2021/01/06 10:00:57;;;;;;;6.53;3.40;;;3.20;99.90;;;;;;5075824;28;20202;-75
2021/01/06 10:03:28;;;;;;;6.28;4.03;;;3.30;99.90;;;;;;5075334;28;20202;-75
2021/01/06 10:06:11;;;;;;;6.05;3.60;;;3.30;99.90;;;;;;5075434;28;20203;-75
2021/01/06 10:08:45;;;;;;;5.70;3.40;;;3.20;99.90;;;;;;5075084;28;20679;-75
2021/01/06 10:11:25;;;;;;;6.68;3.72;;;3.10;99.90;;;;;;5075691;28;20598;-75
2021/01/06 10:14:07;;;;;;;5.72;3.50;;;3.00;99.90;;;;;;5075368;28;20549;-75
2021/01/06 10:16:39;;;;;;;5.75;2.95;;;2.90;99.90;;;;;;5074170;28;20362;-75
2021/01/06 10:19:13;;;;;;;6.43;3.83;;;3.00;99.90;;;;;;5075123;28;20282;-75
2021/01/06 10:21:53;;;;;;;7.90;4.03;;;3.00;99.90;;;;;;5075587;28;20295;-75
2021/01/06 10:24:45;;;;;;;7.03;5.15;;;3.10;99.90;;;;;;5075683;28;20216;-75
2021/01/06 10:27:27;;;;;;;5.13;3.63;;;3.30;99.90;;;;;;5074610;28;20223;-75
2021/01/06 10:29:56;;;;;;;7.28;3.75;;;3.20;99.90;;;;;;5076103;28;20226;-75
2021/01/06 10:32:44;;;;;;;8.70;4.20;;;3.20;99.90;;;;;;5075079;28;20198;-75
2021/01/06 10:35:39;;;;;;;7.18;3.58;;;3.30;99.90;;;;;;5076229;28;20256;-76
2021/01/06 10:38:30;;;;;;;6.10;3.92;;;3.10;99.90;;;;;;5076002;28;20281;-74
2021/01/06 10:41:22;;;;;;;9.30;4.32;;;3.20;99.90;;;;;;5060636;28;20202;-75
2021/01/06 10:43:51;;;;;;;6.22;3.92;;;3.10;99.90;;;;;;5074832;28;20274;-75
2021/01/06 10:46:43;;;;;;;6.25;3.50;;;3.10;99.90;;;;;;5074355;28;20770;-74
2021/01/06 10:49:35;;;;;;;6.03;3.33;;;3.00;99.90;;;;;;5074921;28;20368;-74
2021/01/06 10:52:16;;;;;;;7.10;3.92;;;3.10;99.90;;;;;;5074119;28;20752;-74
2021/01/06 10:54:52;;;;;;;6.30;3.60;;;3.20;99.90;;;;;;5074502;28;20203;-74
2021/01/06 10:57:25;;;;;;;11.93;5.40;;;3.30;99.90;;;;;;5074267;28;20695;-74
2021/01/06 11:00:16;;;;;;;6.47;3.63;;;3.30;99.90;;;;;;5074489;28;20685;-75
2021/01/06 11:03:12;;;;;;;7.22;4.70;;;3.20;99.90;;;;;;5074113;28;20333;-75
2021/01/06 11:05:42;;;;;;;6.07;3.95;;;3.30;99.90;;;;;;5074262;28;20207;-75
2021/01/06 11:09:02;;;;;;;9.70;4.60;;;3.40;99.90;;;;;;5074251;28;20241;-74
2021/01/06 11:12:10;;;;;;;8.98;5.18;;;3.40;99.90;;;;;;5012899;28;20219;-75
2021/01/06 11:15:04;;;;;;;9.80;4.80;;;3.60;99.90;;;;;;5012604;28;20205;-75
2021/01/06 11:17:33;;;;;;;6.95;4.18;;;3.60;99.90;;;;;;5073882;28;20585;-75
2021/01/06 11:20:04;;;;;;;5.28;3.20;;;3.40;99.90;;;;;;5073502;28;20203;-75
2021/01/06 11:22:39;;;;;;;8.35;5.13;;;3.30;99.90;;;;;;5074357;28;20544;-74
2021/01/06 11:25:36;;;;;;;9.73;4.57;;;3.30;99.90;;;;;;5074152;28;20214;-75
2021/01/06 11:28:27;;;;;;;8.55;3.88;;;3.00;99.90;;;;;;5073444;28;20226;-75
2021/01/06 11:31:22;;;;;;;7.70;3.67;;;2.90;99.90;;;;;;5074286;28;20198;-75
2021/01/06 11:33:51;;;;;;;9.50;4.55;;;3.00;99.90;;;;;;5061386;28;20214;-75
2021/01/06 11:36:30;;;;;;;13.13;4.57;;;3.10;99.90;;;;;;5074091;28;20203;-75
2021/01/06 11:38:59;;;;;;;12.25;5.20;;;3.30;99.90;;;;;;5074174;28;20233;-75
2021/01/06 11:42:02;;;;;;;10.82;4.70;;;3.40;99.90;;;;;;5074178;28;20665;-75
2021/01/06 11:44:33;;;;;;;14.63;6.32;;;3.40;99.90;;;;;;5073665;28;20202;-75
2021/01/06 11:47:25;;;;;;;10.85;4.57;;;3.40;99.90;;;;;;5073272;28;20326;-75
2021/01/06 11:49:55;;;;;;;9.88;4.13;;;3.50;99.90;;;;;;5075743;28;20581;-75
2021/01/06 11:52:38;;;;;;;9.52;4.72;;;3.60;99.90;;;;;;5074947;28;20234;-75
2021/01/06 11:55:27;;;;;;;9.60;5.07;;;3.70;99.90;;;;;;5074288;28;20198;-75
2021/01/06 11:58:03;;;;;;;10.35;5.20;;;3.70;99.90;;;;;;5075041;28;20222;-75
2021/01/06 12:01:01;;;;;;;11.60;4.88;;;3.80;99.90;;;;;;5075609;28;20197;-76
2021/01/06 12:03:42;;;;;;;6.90;5.00;;;3.80;99.90;;;;;;5075217;28;20221;-75
2021/01/06 12:06:18;;;;;;;9.02;4.32;;;3.90;99.90;;;;;;5074588;28;20263;-76
2021/01/06 12:08:59;;;;;;;7.50;4.25;;;3.80;99.90;;;;;;5074323;28;20237;-75
2021/01/06 12:11:31;;;;;;;10.32;4.75;;;3.90;99.90;;;;;;5074339;28;20271;-75
2021/01/06 12:14:22;;;;;;;8.18;4.60;;;4.00;99.90;;;;;;5074106;28;20724;-75
2021/01/06 12:16:57;;;;;;;7.60;5.07;;;4.00;99.90;;;;;;5074075;28;20203;-75
2021/01/06 12:19:34;;;;;;;9.02;4.55;;;3.90;99.90;;;;;;5074507;28;20260;-75
2021/01/06 12:22:17;;;;;;;10.02;4.53;;;4.00;99.90;;;;;;5074138;28;20553;-75
2021/01/06 12:25:01;;;;;;;8.85;4.35;;;4.00;99.90;;;;;;5074313;28;20210;-75
2021/01/06 12:27:42;;;;;;;11.30;4.93;;;4.00;99.90;;;;;;5073588;28;20281;-75
2021/01/06 12:30:35;;;;;;;14.40;5.20;;;4.00;99.90;;;;;;5075578;28;20567;-76
2021/01/06 12:33:11;;;;;;;12.88;5.95;;;4.00;99.90;;;;;;5077734;28;20209;-75
2021/01/06 12:35:40;;;;;;;7.25;4.70;;;4.00;99.90;;;;;;5077705;28;20679;-75
2021/01/06 12:38:09;;;;;;;10.13;5.60;;;3.90;99.90;;;;;;5077941;28;20222;-74
2021/01/06 12:40:53;;;;;;;9.50;5.97;;;3.70;99.90;;;;;;5077614;28;20289;-75
2021/01/06 12:43:26;;;;;;;9.57;5.30;;;3.60;99.90;;;;;;5077875;28;20206;-75
2021/01/06 12:46:02;;;;;;;9.75;4.57;;;3.70;99.90;;;;;;5077839;28;20210;-75
2021/01/06 12:48:40;;;;;;;7.95;4.30;;;3.80;99.90;;;;;;5077623;28;20698;-75
2021/01/06 12:51:13;;;;;;;7.15;3.80;;;3.80;99.90;;;;;;5076645;28;20220;-75
2021/01/06 12:53:42;;;;;;;8.07;4.15;;;3.90;99.90;;;;;;5076938;28;20533;-75
2021/01/06 12:56:12;;;;;;;9.95;5.07;;;3.80;99.90;;;;;;5076225;28;20199;-75
2021/01/06 12:58:43;;;;;;;9.35;5.10;;;3.80;99.90;;;;;;5076610;28;20226;-75
2021/01/06 13:01:24;;;;;;;7.97;3.92;;;3.80;99.90;;;;;;5077385;28;20525;-75
2021/01/06 13:04:01;;;;;;;7.28;5.00;;;3.90;99.90;;;;;;5076435;28;20217;-76
2021/01/06 13:06:45;;;;;;;10.60;4.95;;;4.00;99.90;;;;;;5076298;28;20213;-74
2021/01/06 13:09:35;;;;;;;9.05;4.63;;;4.10;99.90;;;;;;5076905;28;20312;-75
2021/01/06 13:12:22;;;;;;;10.18;4.18;;;3.90;99.90;;;;;;5076017;28;20307;-75
2021/01/06 13:14:53;;;;;;;5.82;3.53;;;3.80;99.90;;;;;;5077063;28;20289;-74
2021/01/06 13:17:26;;;;;;;8.13;3.75;;;3.80;99.90;;;;;;5078281;28;20199;-74
2021/01/06 13:20:29;;;;;;;6.78;3.60;;;3.80;99.90;;;;;;5078058;28;20290;-74
2021/01/06 13:23:00;;;;;;;7.80;4.45;;;3.90;99.90;;;;;;5077704;28;20289;-74
2021/01/06 13:25:36;;;;;;;8.02;4.00;;;4.00;99.90;;;;;;5078158;28;20214;-74
2021/01/06 13:28:29;;;;;;;6.68;4.15;;;4.00;99.90;;;;;;5077541;28;20236;-74
2021/01/06 13:31:22;;;;;;;5.20;2.88;;;4.00;99.90;;;;;;5077623;28;20213;-74